sensor_id;sensor_type;location;lat;lon;timestamp;P1;durP1;ratioP1;P2;durP2;ratioP2
48925;SDS011;39838;59.938;30.642;2023-09-30T00:02:06;29.90;;;21.02;;
48925;SDS011;39838;59.938;30.642;2023-09-30T00:04:35;28.88;;;20.75;;
48925;SDS011;39838;59.938;30.642;2023-09-30T00:07:02;32.72;;;21.35;;
48925;SDS011;39838;59.938;30.642;2023-09-30T00:09:30;33.35;;;21.27;;
48925;SDS011;39838;59.938;30.642;2023-09-30T00:11:57;34.88;;;21.70;;
48925;SDS011;39838;59.938;30.642;2023-09-30T00:14:25;33.90;;;22.83;;
48925;SDS011;39838;59.938;30.642;2023-09-30T00:16:52;29.65;;;21.17;;
48925;SDS011;39838;59.938;30.642;2023-09-30T00:19:20;30.25;;;21.70;;
48925;SDS011;39838;59.938;30.642;2023-09-30T00:21:49;34.30;;;21.27;;
48925;SDS011;39838;59.938;30.642;2023-09-30T00:24:16;34.05;;;21.30;;
48925;SDS011;39838;59.938;30.642;2023-09-30T00:26:45;32.03;;;21.30;;
48925;SDS011;39838;59.938;30.642;2023-09-30T00:29:12;37.03;;;21.45;;
48925;SDS011;39838;59.938;30.642;2023-09-30T00:31:40;31.35;;;21.05;;
48925;SDS011;39838;59.938;30.642;2023-09-30T00:34:07;31.42;;;21.08;;
48925;SDS011;39838;59.938;30.642;2023-09-30T00:36:34;32.88;;;21.00;;
48925;SDS011;39838;59.938;30.642;2023-09-30T00:39:03;27.75;;;20.08;;
48925;SDS011;39838;59.938;30.642;2023-09-30T00:41:31;32.78;;;19.67;;
48925;SDS011;39838;59.938;30.642;2023-09-30T00:43:59;32.63;;;20.08;;
48925;SDS011;39838;59.938;30.642;2023-09-30T00:46:27;33.50;;;18.77;;
48925;SDS011;39838;59.938;30.642;2023-09-30T00:48:57;30.75;;;20.60;;
48925;SDS011;39838;59.938;30.642;2023-09-30T00:51:25;34.30;;;20.55;;
48925;SDS011;39838;59.938;30.642;2023-09-30T00:53:53;30.85;;;20.25;;
48925;SDS011;39838;59.938;30.642;2023-09-30T00:56:26;32.28;;;20.50;;
48925;SDS011;39838;59.938;30.642;2023-09-30T00:58:54;33.78;;;20.33;;
48925;SDS011;39838;59.938;30.642;2023-09-30T01:01:22;29.70;;;20.02;;
48925;SDS011;39838;59.938;30.642;2023-09-30T01:03:50;26.52;;;19.75;;
48925;SDS011;39838;59.938;30.642;2023-09-30T01:06:18;31.83;;;19.90;;
48925;SDS011;39838;59.938;30.642;2023-09-30T01:08:46;30.42;;;20.88;;
48925;SDS011;39838;59.938;30.642;2023-09-30T01:11:13;26.50;;;19.85;;
48925;SDS011;39838;59.938;30.642;2023-09-30T01:13:43;33.25;;;21.02;;
48925;SDS011;39838;59.938;30.642;2023-09-30T01:16:12;32.88;;;21.20;;
48925;SDS011;39838;59.938;30.642;2023-09-30T01:18:40;34.65;;;20.48;;
48925;SDS011;39838;59.938;30.642;2023-09-30T01:21:08;33.38;;;20.75;;
48925;SDS011;39838;59.938;30.642;2023-09-30T01:23:39;34.05;;;21.02;;
48925;SDS011;39838;59.938;30.642;2023-09-30T01:26:07;38.10;;;21.05;;
48925;SDS011;39838;59.938;30.642;2023-09-30T01:28:36;31.05;;;20.65;;
48925;SDS011;39838;59.938;30.642;2023-09-30T01:31:03;30.13;;;20.65;;
48925;SDS011;39838;59.938;30.642;2023-09-30T01:33:31;35.03;;;21.08;;
48925;SDS011;39838;59.938;30.642;2023-09-30T01:35:59;31.77;;;21.55;;
48925;SDS011;39838;59.938;30.642;2023-09-30T01:38:26;35.15;;;21.27;;
48925;SDS011;39838;59.938;30.642;2023-09-30T01:40:55;34.28;;;20.75;;
48925;SDS011;39838;59.938;30.642;2023-09-30T01:43:22;35.95;;;21.40;;
48925;SDS011;39838;59.938;30.642;2023-09-30T01:45:50;30.60;;;21.02;;
48925;SDS011;39838;59.938;30.642;2023-09-30T01:48:17;31.13;;;21.42;;
48925;SDS011;39838;59.938;30.642;2023-09-30T01:50:45;27.15;;;20.52;;
48925;SDS011;39838;59.938;30.642;2023-09-30T01:53:13;31.15;;;21.08;;
48925;SDS011;39838;59.938;30.642;2023-09-30T01:55:40;33.30;;;21.92;;
48925;SDS011;39838;59.938;30.642;2023-09-30T01:58:09;33.90;;;22.13;;
48925;SDS011;39838;59.938;30.642;2023-09-30T02:00:37;31.77;;;23.35;;
48925;SDS011;39838;59.938;30.642;2023-09-30T02:03:04;29.77;;;21.42;;
48925;SDS011;39838;59.938;30.642;2023-09-30T02:05:32;32.25;;;21.45;;
48925;SDS011;39838;59.938;30.642;2023-09-30T02:07:59;27.83;;;20.67;;
48925;SDS011;39838;59.938;30.642;2023-09-30T02:10:31;30.67;;;20.25;;
48925;SDS011;39838;59.938;30.642;2023-09-30T02:13:00;31.83;;;20.98;;
48925;SDS011;39838;59.938;30.642;2023-09-30T02:15:29;31.45;;;21.08;;
48925;SDS011;39838;59.938;30.642;2023-09-30T02:17:56;29.98;;;20.52;;
48925;SDS011;39838;59.938;30.642;2023-09-30T02:20:26;33.75;;;20.45;;
48925;SDS011;39838;59.938;30.642;2023-09-30T02:22:55;30.45;;;19.23;;
48925;SDS011;39838;59.938;30.642;2023-09-30T02:25:24;30.30;;;20.15;;
48925;SDS011;39838;59.938;30.642;2023-09-30T02:27:52;28.48;;;19.70;;
48925;SDS011;39838;59.938;30.642;2023-09-30T02:30:19;29.38;;;19.35;;
48925;SDS011;39838;59.938;30.642;2023-09-30T02:32:48;29.65;;;19.00;;
48925;SDS011;39838;59.938;30.642;2023-09-30T02:35:15;28.05;;;18.70;;
48925;SDS011;39838;59.938;30.642;2023-09-30T02:37:43;28.10;;;18.60;;
48925;SDS011;39838;59.938;30.642;2023-09-30T02:40:10;26.70;;;18.27;;
48925;SDS011;39838;59.938;30.642;2023-09-30T02:42:40;28.20;;;18.73;;
48925;SDS011;39838;59.938;30.642;2023-09-30T02:45:09;30.30;;;19.77;;
48925;SDS011;39838;59.938;30.642;2023-09-30T02:47:37;30.92;;;20.13;;
48925;SDS011;39838;59.938;30.642;2023-09-30T02:50:08;37.03;;;19.98;;
48925;SDS011;39838;59.938;30.642;2023-09-30T02:52:37;31.20;;;21.13;;
48925;SDS011;39838;59.938;30.642;2023-09-30T02:55:06;33.83;;;20.25;;
48925;SDS011;39838;59.938;30.642;2023-09-30T02:57:35;30.92;;;20.17;;
48925;SDS011;39838;59.938;30.642;2023-09-30T03:00:02;30.45;;;19.90;;
48925;SDS011;39838;59.938;30.642;2023-09-30T03:02:39;26.83;;;19.35;;
48925;SDS011;39838;59.938;30.642;2023-09-30T03:05:08;25.52;;;19.63;;
48925;SDS011;39838;59.938;30.642;2023-09-30T03:07:36;25.10;;;19.27;;
48925;SDS011;39838;59.938;30.642;2023-09-30T03:10:03;29.17;;;20.30;;
48925;SDS011;39838;59.938;30.642;2023-09-30T03:12:34;27.55;;;19.48;;
48925;SDS011;39838;59.938;30.642;2023-09-30T03:15:01;29.85;;;20.00;;
48925;SDS011;39838;59.938;30.642;2023-09-30T03:17:31;26.58;;;20.10;;
48925;SDS011;39838;59.938;30.642;2023-09-30T03:19:58;32.22;;;19.98;;
48925;SDS011;39838;59.938;30.642;2023-09-30T03:22:36;25.83;;;19.70;;
48925;SDS011;39838;59.938;30.642;2023-09-30T03:25:03;33.33;;;19.98;;
48925;SDS011;39838;59.938;30.642;2023-09-30T03:27:32;29.30;;;19.58;;
48925;SDS011;39838;59.938;30.642;2023-09-30T03:30:01;26.27;;;19.65;;
48925;SDS011;39838;59.938;30.642;2023-09-30T03:32:31;27.00;;;18.73;;
48925;SDS011;39838;59.938;30.642;2023-09-30T03:35:02;31.33;;;18.73;;
48925;SDS011;39838;59.938;30.642;2023-09-30T03:37:31;27.17;;;18.40;;
48925;SDS011;39838;59.938;30.642;2023-09-30T03:40:01;23.63;;;18.23;;
48925;SDS011;39838;59.938;30.642;2023-09-30T03:42:37;29.63;;;19.85;;
48925;SDS011;39838;59.938;30.642;2023-09-30T03:45:05;26.60;;;19.08;;
48925;SDS011;39838;59.938;30.642;2023-09-30T03:47:35;24.23;;;18.20;;
48925;SDS011;39838;59.938;30.642;2023-09-30T03:50:04;28.88;;;17.80;;
48925;SDS011;39838;59.938;30.642;2023-09-30T03:52:38;22.83;;;18.30;;
48925;SDS011;39838;59.938;30.642;2023-09-30T03:55:07;27.13;;;18.33;;
48925;SDS011;39838;59.938;30.642;2023-09-30T03:57:37;30.88;;;18.30;;
48925;SDS011;39838;59.938;30.642;2023-09-30T04:00:05;23.58;;;18.90;;
48925;SDS011;39838;59.938;30.642;2023-09-30T04:02:36;24.77;;;18.90;;
48925;SDS011;39838;59.938;30.642;2023-09-30T04:05:04;28.02;;;19.30;;
48925;SDS011;39838;59.938;30.642;2023-09-30T04:07:32;27.90;;;18.35;;
48925;SDS011;39838;59.938;30.642;2023-09-30T04:10:02;27.58;;;19.25;;
48925;SDS011;39838;59.938;30.642;2023-09-30T04:12:33;27.98;;;18.60;;
48925;SDS011;39838;59.938;30.642;2023-09-30T04:15:00;27.27;;;18.58;;
48925;SDS011;39838;59.938;30.642;2023-09-30T04:17:32;29.50;;;19.67;;
48925;SDS011;39838;59.938;30.642;2023-09-30T04:19:59;27.90;;;18.73;;
48925;SDS011;39838;59.938;30.642;2023-09-30T04:22:26;26.65;;;18.95;;
48925;SDS011;39838;59.938;30.642;2023-09-30T04:24:55;27.88;;;19.58;;
48925;SDS011;39838;59.938;30.642;2023-09-30T04:27:22;28.55;;;18.77;;
48925;SDS011;39838;59.938;30.642;2023-09-30T04:29:51;27.52;;;19.40;;
48925;SDS011;39838;59.938;30.642;2023-09-30T04:32:18;29.25;;;19.05;;
48925;SDS011;39838;59.938;30.642;2023-09-30T04:34:46;28.80;;;19.92;;
48925;SDS011;39838;59.938;30.642;2023-09-30T04:37:13;28.60;;;19.17;;
48925;SDS011;39838;59.938;30.642;2023-09-30T04:39:40;29.00;;;19.70;;
48925;SDS011;39838;59.938;30.642;2023-09-30T04:42:09;28.42;;;19.92;;
48925;SDS011;39838;59.938;30.642;2023-09-30T04:44:36;28.40;;;19.90;;
48925;SDS011;39838;59.938;30.642;2023-09-30T04:47:08;29.38;;;19.92;;
48925;SDS011;39838;59.938;30.642;2023-09-30T04:49:35;29.45;;;21.05;;
48925;SDS011;39838;59.938;30.642;2023-09-30T04:52:03;30.05;;;20.65;;
48925;SDS011;39838;59.938;30.642;2023-09-30T04:54:32;32.70;;;20.17;;
48925;SDS011;39838;59.938;30.642;2023-09-30T04:57:01;31.13;;;19.77;;
48925;SDS011;39838;59.938;30.642;2023-09-30T04:59:29;33.67;;;20.52;;
48925;SDS011;39838;59.938;30.642;2023-09-30T05:01:56;31.02;;;20.77;;
48925;SDS011;39838;59.938;30.642;2023-09-30T05:04:25;29.80;;;20.60;;
48925;SDS011;39838;59.938;30.642;2023-09-30T05:06:52;32.38;;;20.42;;
48925;SDS011;39838;59.938;30.642;2023-09-30T05:09:20;35.28;;;21.88;;
48925;SDS011;39838;59.938;30.642;2023-09-30T05:11:47;29.52;;;20.08;;
48925;SDS011;39838;59.938;30.642;2023-09-30T05:14:15;35.88;;;21.15;;
48925;SDS011;39838;59.938;30.642;2023-09-30T05:16:42;30.55;;;20.77;;
48925;SDS011;39838;59.938;30.642;2023-09-30T05:19:10;27.33;;;18.67;;
48925;SDS011;39838;59.938;30.642;2023-09-30T05:21:39;31.08;;;18.63;;
48925;SDS011;39838;59.938;30.642;2023-09-30T05:24:06;29.13;;;19.05;;
48925;SDS011;39838;59.938;30.642;2023-09-30T05:26:34;25.85;;;18.63;;
48925;SDS011;39838;59.938;30.642;2023-09-30T05:29:01;27.60;;;18.25;;
48925;SDS011;39838;59.938;30.642;2023-09-30T05:31:28;26.90;;;19.00;;
48925;SDS011;39838;59.938;30.642;2023-09-30T05:33:56;25.52;;;18.95;;
48925;SDS011;39838;59.938;30.642;2023-09-30T05:36:23;28.77;;;18.90;;
48925;SDS011;39838;59.938;30.642;2023-09-30T05:38:52;27.90;;;19.20;;
48925;SDS011;39838;59.938;30.642;2023-09-30T05:41:20;29.05;;;19.35;;
48925;SDS011;39838;59.938;30.642;2023-09-30T05:43:47;28.73;;;19.40;;
48925;SDS011;39838;59.938;30.642;2023-09-30T05:46:15;30.02;;;18.30;;
48925;SDS011;39838;59.938;30.642;2023-09-30T05:48:43;24.73;;;18.60;;
48925;SDS011;39838;59.938;30.642;2023-09-30T05:51:10;25.27;;;17.85;;
48925;SDS011;39838;59.938;30.642;2023-09-30T05:53:40;25.95;;;18.23;;
48925;SDS011;39838;59.938;30.642;2023-09-30T05:56:09;29.48;;;19.65;;
48925;SDS011;39838;59.938;30.642;2023-09-30T05:58:37;29.45;;;18.90;;
48925;SDS011;39838;59.938;30.642;2023-09-30T06:01:07;26.40;;;18.45;;
48925;SDS011;39838;59.938;30.642;2023-09-30T06:03:36;23.70;;;18.00;;
48925;SDS011;39838;59.938;30.642;2023-09-30T06:06:10;27.38;;;17.73;;
48925;SDS011;39838;59.938;30.642;2023-09-30T06:08:39;26.55;;;16.35;;
48925;SDS011;39838;59.938;30.642;2023-09-30T06:11:07;24.63;;;16.20;;
48925;SDS011;39838;59.938;30.642;2023-09-30T06:13:42;29.58;;;15.90;;
48925;SDS011;39838;59.938;30.642;2023-09-30T06:16:10;23.30;;;15.68;;
48925;SDS011;39838;59.938;30.642;2023-09-30T06:18:38;27.45;;;15.80;;
48925;SDS011;39838;59.938;30.642;2023-09-30T06:21:05;24.67;;;15.50;;
48925;SDS011;39838;59.938;30.642;2023-09-30T06:23:32;30.90;;;16.02;;
48925;SDS011;39838;59.938;30.642;2023-09-30T06:25:59;23.42;;;15.25;;
48925;SDS011;39838;59.938;30.642;2023-09-30T06:28:29;23.05;;;15.18;;
48925;SDS011;39838;59.938;30.642;2023-09-30T06:30:58;21.67;;;14.88;;
48925;SDS011;39838;59.938;30.642;2023-09-30T06:33:25;23.80;;;14.82;;
48925;SDS011;39838;59.938;30.642;2023-09-30T06:35:54;24.48;;;15.38;;
48925;SDS011;39838;59.938;30.642;2023-09-30T06:38:22;20.75;;;14.75;;
48925;SDS011;39838;59.938;30.642;2023-09-30T06:40:50;23.90;;;15.60;;
48925;SDS011;39838;59.938;30.642;2023-09-30T06:43:19;21.13;;;14.45;;
48925;SDS011;39838;59.938;30.642;2023-09-30T06:45:48;24.13;;;15.05;;
48925;SDS011;39838;59.938;30.642;2023-09-30T06:48:15;23.52;;;14.95;;
48925;SDS011;39838;59.938;30.642;2023-09-30T06:50:45;27.02;;;15.85;;
48925;SDS011;39838;59.938;30.642;2023-09-30T06:53:14;19.90;;;14.13;;
48925;SDS011;39838;59.938;30.642;2023-09-30T06:55:41;19.77;;;14.70;;
48925;SDS011;39838;59.938;30.642;2023-09-30T06:58:08;22.88;;;16.10;;
48925;SDS011;39838;59.938;30.642;2023-09-30T07:00:36;21.33;;;14.88;;
48925;SDS011;39838;59.938;30.642;2023-09-30T07:03:05;21.02;;;15.23;;
48925;SDS011;39838;59.938;30.642;2023-09-30T07:05:32;20.75;;;15.20;;
48925;SDS011;39838;59.938;30.642;2023-09-30T07:08:00;22.15;;;14.60;;
48925;SDS011;39838;59.938;30.642;2023-09-30T07:10:27;20.30;;;15.15;;
48925;SDS011;39838;59.938;30.642;2023-09-30T07:12:55;20.98;;;15.23;;
48925;SDS011;39838;59.938;30.642;2023-09-30T07:15:23;25.55;;;15.73;;
48925;SDS011;39838;59.938;30.642;2023-09-30T07:17:50;23.27;;;16.13;;
48925;SDS011;39838;59.938;30.642;2023-09-30T07:20:19;25.42;;;17.20;;
48925;SDS011;39838;59.938;30.642;2023-09-30T07:22:48;27.73;;;17.73;;
48925;SDS011;39838;59.938;30.642;2023-09-30T07:25:16;28.80;;;18.95;;
48925;SDS011;39838;59.938;30.642;2023-09-30T07:27:43;33.67;;;19.08;;
48925;SDS011;39838;59.938;30.642;2023-09-30T07:30:12;25.95;;;18.58;;
48925;SDS011;39838;59.938;30.642;2023-09-30T07:32:41;28.17;;;18.17;;
48925;SDS011;39838;59.938;30.642;2023-09-30T07:35:08;24.42;;;16.50;;
48925;SDS011;39838;59.938;30.642;2023-09-30T07:37:37;23.08;;;16.27;;
48925;SDS011;39838;59.938;30.642;2023-09-30T07:40:05;21.70;;;15.00;;
48925;SDS011;39838;59.938;30.642;2023-09-30T07:42:34;18.83;;;14.32;;
48925;SDS011;39838;59.938;30.642;2023-09-30T07:45:01;22.55;;;14.57;;
48925;SDS011;39838;59.938;30.642;2023-09-30T07:47:31;21.13;;;13.93;;
48925;SDS011;39838;59.938;30.642;2023-09-30T07:50:00;20.45;;;14.18;;
48925;SDS011;39838;59.938;30.642;2023-09-30T07:52:29;20.98;;;14.40;;
48925;SDS011;39838;59.938;30.642;2023-09-30T07:54:57;20.10;;;14.50;;
48925;SDS011;39838;59.938;30.642;2023-09-30T07:57:25;18.58;;;13.73;;
48925;SDS011;39838;59.938;30.642;2023-09-30T07:59:52;22.67;;;13.68;;
48925;SDS011;39838;59.938;30.642;2023-09-30T08:02:20;19.20;;;13.25;;
48925;SDS011;39838;59.938;30.642;2023-09-30T08:04:49;23.25;;;14.30;;
48925;SDS011;39838;59.938;30.642;2023-09-30T08:07:17;24.60;;;13.85;;
48925;SDS011;39838;59.938;30.642;2023-09-30T08:09:44;18.15;;;13.27;;
48925;SDS011;39838;59.938;30.642;2023-09-30T08:12:13;20.45;;;12.65;;
48925;SDS011;39838;59.938;30.642;2023-09-30T08:14:40;20.88;;;13.52;;
48925;SDS011;39838;59.938;30.642;2023-09-30T08:17:09;19.23;;;13.18;;
48925;SDS011;39838;59.938;30.642;2023-09-30T08:19:37;16.88;;;12.75;;
48925;SDS011;39838;59.938;30.642;2023-09-30T08:22:05;16.95;;;12.23;;
48925;SDS011;39838;59.938;30.642;2023-09-30T08:24:33;18.55;;;12.43;;
48925;SDS011;39838;59.938;30.642;2023-09-30T08:27:00;19.63;;;11.93;;
48925;SDS011;39838;59.938;30.642;2023-09-30T08:29:29;17.20;;;11.85;;
48925;SDS011;39838;59.938;30.642;2023-09-30T08:31:57;20.58;;;13.00;;
48925;SDS011;39838;59.938;30.642;2023-09-30T08:34:24;20.40;;;12.65;;
48925;SDS011;39838;59.938;30.642;2023-09-30T08:36:51;16.52;;;11.80;;
48925;SDS011;39838;59.938;30.642;2023-09-30T08:39:18;20.85;;;11.90;;
48925;SDS011;39838;59.938;30.642;2023-09-30T08:41:46;16.30;;;11.38;;
48925;SDS011;39838;59.938;30.642;2023-09-30T08:44:13;16.10;;;10.68;;
48925;SDS011;39838;59.938;30.642;2023-09-30T08:46:43;19.08;;;11.25;;
48925;SDS011;39838;59.938;30.642;2023-09-30T08:49:10;19.42;;;10.75;;
48925;SDS011;39838;59.938;30.642;2023-09-30T08:51:39;15.68;;;10.18;;
48925;SDS011;39838;59.938;30.642;2023-09-30T08:54:07;17.80;;;11.35;;
48925;SDS011;39838;59.938;30.642;2023-09-30T08:56:34;17.50;;;10.32;;
48925;SDS011;39838;59.938;30.642;2023-09-30T08:59:03;18.13;;;10.32;;
48925;SDS011;39838;59.938;30.642;2023-09-30T09:01:31;18.27;;;10.95;;
48925;SDS011;39838;59.938;30.642;2023-09-30T09:04:00;18.88;;;10.23;;
48925;SDS011;39838;59.938;30.642;2023-09-30T09:06:28;14.35;;;9.75;;
48925;SDS011;39838;59.938;30.642;2023-09-30T09:09:06;16.42;;;10.10;;
48925;SDS011;39838;59.938;30.642;2023-09-30T09:11:40;15.43;;;9.63;;
48925;SDS011;39838;59.938;30.642;2023-09-30T09:14:07;17.08;;;10.15;;
48925;SDS011;39838;59.938;30.642;2023-09-30T09:16:35;15.95;;;9.57;;
48925;SDS011;39838;59.938;30.642;2023-09-30T09:19:13;20.40;;;10.25;;
48925;SDS011;39838;59.938;30.642;2023-09-30T09:21:52;15.57;;;9.55;;
48925;SDS011;39838;59.938;30.642;2023-09-30T09:24:29;14.07;;;9.50;;
48925;SDS011;39838;59.938;30.642;2023-09-30T09:27:09;11.63;;;9.20;;
48925;SDS011;39838;59.938;30.642;2023-09-30T09:29:37;15.18;;;9.80;;
48925;SDS011;39838;59.938;30.642;2023-09-30T09:32:08;14.55;;;9.75;;
48925;SDS011;39838;59.938;30.642;2023-09-30T09:34:39;12.43;;;9.80;;
48925;SDS011;39838;59.938;30.642;2023-09-30T09:37:13;16.65;;;8.75;;
48925;SDS011;39838;59.938;30.642;2023-09-30T09:39:51;12.23;;;8.88;;
48925;SDS011;39838;59.938;30.642;2023-09-30T09:42:26;12.43;;;8.65;;
48925;SDS011;39838;59.938;30.642;2023-09-30T09:44:55;12.93;;;8.68;;
48925;SDS011;39838;59.938;30.642;2023-09-30T09:47:24;11.38;;;8.32;;
48925;SDS011;39838;59.938;30.642;2023-09-30T09:49:53;13.07;;;8.30;;
48925;SDS011;39838;59.938;30.642;2023-09-30T09:52:23;11.82;;;8.55;;
48925;SDS011;39838;59.938;30.642;2023-09-30T09:54:51;13.32;;;8.65;;
48925;SDS011;39838;59.938;30.642;2023-09-30T09:57:19;15.05;;;8.85;;
48925;SDS011;39838;59.938;30.642;2023-09-30T09:59:46;17.40;;;8.93;;
48925;SDS011;39838;59.938;30.642;2023-09-30T10:02:15;12.55;;;9.10;;
48925;SDS011;39838;59.938;30.642;2023-09-30T10:04:44;14.93;;;9.38;;
48925;SDS011;39838;59.938;30.642;2023-09-30T10:07:14;13.90;;;8.95;;
48925;SDS011;39838;59.938;30.642;2023-09-30T10:09:54;15.23;;;9.23;;
48925;SDS011;39838;59.938;30.642;2023-09-30T10:12:25;13.60;;;9.50;;
48925;SDS011;39838;59.938;30.642;2023-09-30T10:14:53;17.10;;;9.52;;
48925;SDS011;39838;59.938;30.642;2023-09-30T10:17:21;15.32;;;9.52;;
48925;SDS011;39838;59.938;30.642;2023-09-30T10:20:26;15.43;;;9.55;;
48925;SDS011;39838;59.938;30.642;2023-09-30T10:25:54;16.77;;;9.40;;
48925;SDS011;39838;59.938;30.642;2023-09-30T10:28:43;12.95;;;9.27;;
48925;SDS011;39838;59.938;30.642;2023-09-30T10:31:13;18.98;;;9.00;;
48925;SDS011;39838;59.938;30.642;2023-09-30T10:36:48;10.82;;;9.25;;
48925;SDS011;39838;59.938;30.642;2023-09-30T10:51:09;18.42;;;10.10;;
48925;SDS011;39838;59.938;30.642;2023-09-30T10:53:44;16.30;;;10.13;;
48925;SDS011;39838;59.938;30.642;2023-09-30T10:56:13;16.48;;;9.57;;
48925;SDS011;39838;59.938;30.642;2023-09-30T10:58:45;14.43;;;9.27;;
48925;SDS011;39838;59.938;30.642;2023-09-30T11:01:14;15.65;;;9.23;;
48925;SDS011;39838;59.938;30.642;2023-09-30T11:03:42;13.60;;;9.43;;
48925;SDS011;39838;59.938;30.642;2023-09-30T11:06:11;14.73;;;9.18;;
48925;SDS011;39838;59.938;30.642;2023-09-30T11:08:46;15.05;;;9.27;;
48925;SDS011;39838;59.938;30.642;2023-09-30T11:11:18;11.02;;;8.73;;
48925;SDS011;39838;59.938;30.642;2023-09-30T11:13:47;12.93;;;8.00;;
48925;SDS011;39838;59.938;30.642;2023-09-30T11:16:15;13.95;;;8.23;;
48925;SDS011;39838;59.938;30.642;2023-09-30T11:18:43;15.55;;;8.60;;
48925;SDS011;39838;59.938;30.642;2023-09-30T11:21:11;13.88;;;8.25;;
48925;SDS011;39838;59.938;30.642;2023-09-30T11:23:40;15.93;;;8.32;;
48925;SDS011;39838;59.938;30.642;2023-09-30T11:26:09;11.90;;;8.07;;
48925;SDS011;39838;59.938;30.642;2023-09-30T11:28:39;16.02;;;8.20;;
48925;SDS011;39838;59.938;30.642;2023-09-30T11:31:10;15.35;;;8.90;;
48925;SDS011;39838;59.938;30.642;2023-09-30T11:33:48;18.23;;;8.90;;
48925;SDS011;39838;59.938;30.642;2023-09-30T11:36:22;14.95;;;8.55;;
48925;SDS011;39838;59.938;30.642;2023-09-30T11:38:50;13.23;;;7.90;;
48925;SDS011;39838;59.938;30.642;2023-09-30T11:41:19;13.48;;;7.97;;
48925;SDS011;39838;59.938;30.642;2023-09-30T11:44:00;12.82;;;7.53;;
48925;SDS011;39838;59.938;30.642;2023-09-30T11:46:31;14.38;;;7.30;;
48925;SDS011;39838;59.938;30.642;2023-09-30T11:49:00;14.48;;;7.82;;
48925;SDS011;39838;59.938;30.642;2023-09-30T11:51:28;12.25;;;7.90;;
48925;SDS011;39838;59.938;30.642;2023-09-30T11:53:56;14.68;;;8.02;;
48925;SDS011;39838;59.938;30.642;2023-09-30T11:56:24;13.13;;;7.90;;
48925;SDS011;39838;59.938;30.642;2023-09-30T11:58:55;15.60;;;7.25;;
48925;SDS011;39838;59.938;30.642;2023-09-30T12:01:24;19.30;;;7.95;;
48925;SDS011;39838;59.938;30.642;2023-09-30T12:03:56;10.95;;;7.20;;
48925;SDS011;39838;59.938;30.642;2023-09-30T12:06:24;14.30;;;7.50;;
48925;SDS011;39838;59.938;30.642;2023-09-30T12:08:52;14.13;;;7.68;;
48925;SDS011;39838;59.938;30.642;2023-09-30T12:11:19;12.45;;;7.07;;
48925;SDS011;39838;59.938;30.642;2023-09-30T12:13:47;12.82;;;6.95;;
48925;SDS011;39838;59.938;30.642;2023-09-30T12:16:14;11.00;;;7.25;;
48925;SDS011;39838;59.938;30.642;2023-09-30T12:18:42;18.25;;;7.85;;
48925;SDS011;39838;59.938;30.642;2023-09-30T12:21:11;15.07;;;7.28;;
48925;SDS011;39838;59.938;30.642;2023-09-30T12:23:43;13.80;;;7.50;;
48925;SDS011;39838;59.938;30.642;2023-09-30T12:26:10;12.63;;;6.97;;
48925;SDS011;39838;59.938;30.642;2023-09-30T12:28:37;12.63;;;6.75;;
48925;SDS011;39838;59.938;30.642;2023-09-30T12:31:06;15.18;;;6.60;;
48925;SDS011;39838;59.938;30.642;2023-09-30T12:33:33;12.85;;;6.90;;
48925;SDS011;39838;59.938;30.642;2023-09-30T12:36:00;10.95;;;6.07;;
48925;SDS011;39838;59.938;30.642;2023-09-30T12:38:29;14.68;;;5.95;;
48925;SDS011;39838;59.938;30.642;2023-09-30T12:40:56;11.98;;;5.70;;
48925;SDS011;39838;59.938;30.642;2023-09-30T12:43:24;12.68;;;6.07;;
48925;SDS011;39838;59.938;30.642;2023-09-30T12:45:51;8.75;;;5.85;;
48925;SDS011;39838;59.938;30.642;2023-09-30T12:48:19;15.13;;;6.50;;
48925;SDS011;39838;59.938;30.642;2023-09-30T12:50:46;10.70;;;5.88;;
48925;SDS011;39838;59.938;30.642;2023-09-30T12:53:14;10.52;;;6.55;;
48925;SDS011;39838;59.938;30.642;2023-09-30T12:55:43;15.88;;;6.03;;
48925;SDS011;39838;59.938;30.642;2023-09-30T12:58:10;9.60;;;5.70;;
48925;SDS011;39838;59.938;30.642;2023-09-30T13:00:38;9.07;;;5.63;;
48925;SDS011;39838;59.938;30.642;2023-09-30T13:03:05;13.63;;;6.10;;
48925;SDS011;39838;59.938;30.642;2023-09-30T13:05:33;11.80;;;5.70;;
48925;SDS011;39838;59.938;30.642;2023-09-30T13:08:00;13.00;;;6.07;;
48925;SDS011;39838;59.938;30.642;2023-09-30T13:10:28;10.40;;;6.22;;
48925;SDS011;39838;59.938;30.642;2023-09-30T13:12:57;10.63;;;6.20;;
48925;SDS011;39838;59.938;30.642;2023-09-30T13:15:24;9.50;;;5.70;;
48925;SDS011;39838;59.938;30.642;2023-09-30T13:17:52;11.07;;;6.28;;
48925;SDS011;39838;59.938;30.642;2023-09-30T13:20:19;9.35;;;6.00;;
48925;SDS011;39838;59.938;30.642;2023-09-30T13:22:46;8.45;;;5.13;;
48925;SDS011;39838;59.938;30.642;2023-09-30T13:25:15;8.82;;;3.88;;
48925;SDS011;39838;59.938;30.642;2023-09-30T13:27:42;6.55;;;3.88;;
48925;SDS011;39838;59.938;30.642;2023-09-30T13:30:11;7.38;;;4.15;;
48925;SDS011;39838;59.938;30.642;2023-09-30T13:32:38;7.65;;;3.95;;
48925;SDS011;39838;59.938;30.642;2023-09-30T13:35:06;7.35;;;4.20;;
48925;SDS011;39838;59.938;30.642;2023-09-30T13:37:34;8.20;;;4.57;;
48925;SDS011;39838;59.938;30.642;2023-09-30T13:40:02;9.20;;;4.80;;
48925;SDS011;39838;59.938;30.642;2023-09-30T13:42:33;10.00;;;4.90;;
48925;SDS011;39838;59.938;30.642;2023-09-30T13:45:01;9.07;;;4.40;;
48925;SDS011;39838;59.938;30.642;2023-09-30T13:47:32;9.32;;;4.40;;
48925;SDS011;39838;59.938;30.642;2023-09-30T13:50:00;7.43;;;4.28;;
48925;SDS011;39838;59.938;30.642;2023-09-30T13:52:29;7.82;;;4.30;;
48925;SDS011;39838;59.938;30.642;2023-09-30T13:54:57;7.90;;;4.15;;
48925;SDS011;39838;59.938;30.642;2023-09-30T13:57:24;9.82;;;4.47;;
48925;SDS011;39838;59.938;30.642;2023-09-30T13:59:51;8.38;;;4.65;;
48925;SDS011;39838;59.938;30.642;2023-09-30T14:02:19;9.57;;;4.70;;
48925;SDS011;39838;59.938;30.642;2023-09-30T14:04:47;8.55;;;4.28;;
48925;SDS011;39838;59.938;30.642;2023-09-30T14:07:15;8.23;;;4.50;;
48925;SDS011;39838;59.938;30.642;2023-09-30T14:09:44;8.48;;;4.90;;
48925;SDS011;39838;59.938;30.642;2023-09-30T14:12:11;9.48;;;4.68;;
48925;SDS011;39838;59.938;30.642;2023-09-30T14:14:38;8.05;;;5.10;;
48925;SDS011;39838;59.938;30.642;2023-09-30T14:17:05;10.60;;;5.68;;
48925;SDS011;39838;59.938;30.642;2023-09-30T14:19:36;9.30;;;5.63;;
48925;SDS011;39838;59.938;30.642;2023-09-30T14:22:07;11.38;;;6.15;;
48925;SDS011;39838;59.938;30.642;2023-09-30T14:24:34;9.60;;;7.03;;
48925;SDS011;39838;59.938;30.642;2023-09-30T14:27:02;12.55;;;6.65;;
48925;SDS011;39838;59.938;30.642;2023-09-30T14:29:30;13.15;;;7.85;;
48925;SDS011;39838;59.938;30.642;2023-09-30T14:31:57;9.45;;;6.18;;
48925;SDS011;39838;59.938;30.642;2023-09-30T14:34:24;13.20;;;7.43;;
48925;SDS011;39838;59.938;30.642;2023-09-30T14:36:52;10.43;;;6.75;;
48925;SDS011;39838;59.938;30.642;2023-09-30T14:39:22;10.10;;;5.82;;
48925;SDS011;39838;59.938;30.642;2023-09-30T14:41:49;8.50;;;5.35;;